Time;durP1;ratioP1;P1;durP2;ratioP2;P2;SDS_P1;SDS_P2;PMS_P1;PMS_P2;Temp;Humidity;BMP_temperature;BMP_pressure;BME280_temperature;BME280_humidity;BME280_pressure;Samples;Min_cycle;Max_cycle;Signal;HPM_P1;HPM_P2
2023/04/24 00:00:33;;;;;;;0.70;0.60;;;;;;;11.69;77.64;95696.69;5034987;28;20061;-79
2023/04/24 00:03:01;;;;;;;1.00;0.55;;;;;;;11.72;75.79;95696.28;5037016;28;20049;-79
2023/04/24 00:05:29;;;;;;;3.40;2.40;;;;;;;11.69;73.93;95692.25;5038084;28;20127;-78
2023/04/24 00:07:57;;;;;;;3.15;2.50;;;;;;;11.66;73.36;95699.72;5037410;28;20511;-78
2023/04/24 00:10:24;;;;;;;4.57;3.72;;;;;;;11.63;73.04;95692.28;5037288;28;20072;-79
2023/04/24 00:12:52;;;;;;;3.47;2.40;;;;;;;11.60;73.29;95693.53;5037054;28;20050;-77
2023/04/24 00:15:21;;;;;;;3.00;2.17;;;;;;;11.58;72.96;95695.53;5037064;28;20054;-77
2023/04/24 00:17:48;;;;;;;5.95;4.22;;;;;;;11.58;73.11;95707.81;5037896;28;20055;-78
2023/04/24 00:20:16;;;;;;;6.13;3.20;;;;;;;11.62;75.66;95699.34;5037502;28;20136;-78
2023/04/24 00:22:44;;;;;;;2.25;1.60;;;;;;;11.70;75.38;95711.38;5036785;28;20045;-78
2023/04/24 00:25:11;;;;;;;3.17;1.83;;;;;;;11.71;74.45;95712.94;5037455;28;20061;-78
2023/04/24 00:27:39;;;;;;;1.92;1.33;;;;;;;11.69;74.22;95704.53;5038232;28;20049;-78
2023/04/24 00:30:08;;;;;;;2.28;0.93;;;;;;;11.64;73.62;95707.75;5037949;28;20085;-78
2023/04/24 00:32:37;;;;;;;2.30;1.35;;;;;;;11.60;73.39;95713.63;5037801;28;20523;-76
2023/04/24 00:35:05;;;;;;;3.22;1.55;;;;;;;11.52;73.66;95706.81;5037877;28;20518;-76
2023/04/24 00:37:33;;;;;;;0.98;0.88;;;;;;;11.48;74.03;95697.81;5038419;28;20048;-77
2023/04/24 00:40:01;;;;;;;0.77;0.70;;;;;;;11.44;74.23;95697.44;5037747;28;20053;-78
2023/04/24 00:42:28;;;;;;;1.92;0.77;;;;;;;11.41;74.33;95697.84;5037424;28;20497;-77
2023/04/24 00:44:57;;;;;;;3.20;0.93;;;;;;;11.35;74.30;95701.31;5037589;28;20057;-77
2023/04/24 00:47:26;;;;;;;0.88;0.88;;;;;;;11.31;74.56;95706.13;5037925;28;20053;-79
2023/04/24 00:49:55;;;;;;;1.92;0.88;;;;;;;11.26;74.90;95695.50;5037689;28;20072;-77
2023/04/24 00:52:24;;;;;;;0.73;0.68;;;;;;;11.22;74.61;95696.94;5037547;28;20053;-76
2023/04/24 00:54:51;;;;;;;1.52;0.85;;;;;;;11.20;74.46;95706.00;5037094;28;20060;-77
2023/04/24 00:57:19;;;;;;;2.88;1.15;;;;;;;11.16;74.88;95710.00;5037993;28;20063;-80
2023/04/24 00:59:47;;;;;;;1.67;1.00;;;;;;;11.11;74.43;95708.81;5037495;28;20045;-77
2023/04/24 01:02:15;;;;;;;1.25;0.70;;;;;;;11.08;74.31;95704.00;5037987;28;20151;-80
2023/04/24 01:04:43;;;;;;;1.17;0.70;;;;;;;11.08;74.50;95706.59;5037583;28;20049;-77
2023/04/24 01:07:12;;;;;;;0.65;0.50;;;;;;;11.07;73.80;95710.25;5037678;28;20073;-78
2023/04/24 01:09:41;;;;;;;1.02;0.70;;;;;;;11.04;73.79;95702.84;5036956;28;20444;-76
2023/04/24 01:12:10;;;;;;;1.63;1.05;;;;;;;11.04;74.24;95702.00;5037039;28;20122;-79
2023/04/24 01:14:38;;;;;;;0.77;0.60;;;;;;;11.05;73.63;95699.19;5037488;28;20483;-75
2023/04/24 01:17:05;;;;;;;2.30;0.90;;;;;;;11.06;73.76;95695.59;5037647;28;20049;-77
2023/04/24 01:19:33;;;;;;;0.82;0.63;;;;;;;11.09;73.58;95697.00;5036875;28;20045;-78
2023/04/24 01:22:03;;;;;;;1.38;0.63;;;;;;;11.10;73.64;95691.53;5036499;28;20046;-77
2023/04/24 01:24:32;;;;;;;0.60;0.47;;;;;;;11.11;73.39;95692.38;5036407;28;20049;-79
2023/04/24 01:27:01;;;;;;;2.30;0.93;;;;;;;11.13;73.53;95685.13;5037084;28;20071;-77
2023/04/24 01:29:28;;;;;;;1.48;0.70;;;;;;;11.17;73.46;95686.28;5036766;28;20041;-80
2023/04/24 01:31:58;;;;;;;2.75;0.60;;;;;;;11.20;73.65;95685.91;5037723;28;20041;-77
2023/04/24 01:34:26;;;;;;;0.88;0.63;;;;;;;11.21;73.25;95676.25;5037483;28;20100;-76
2023/04/24 01:36:54;;;;;;;2.28;0.65;;;;;;;11.20;73.06;95672.84;5037065;28;20058;-80
2023/04/24 01:39:23;;;;;;;0.60;0.60;;;;;;;11.20;72.92;95678.06;5038115;28;20042;-80
2023/04/24 01:41:52;;;;;;;1.90;0.63;;;;;;;11.20;72.75;95672.06;5037599;28;20424;-80
2023/04/24 01:44:19;;;;;;;3.22;0.73;;;;;;;11.21;72.74;95671.81;5036602;28;20049;-78
2023/04/24 01:46:47;;;;;;;2.05;0.75;;;;;;;11.21;72.73;95668.41;5036850;28;20087;-78
2023/04/24 01:49:15;;;;;;;3.22;0.95;;;;;;;11.20;73.06;95672.06;5036397;28;20081;-77
2023/04/24 01:51:43;;;;;;;1.65;1.15;;;;;;;11.19;72.99;95666.00;5037104;28;20071;-78
2023/04/24 01:54:10;;;;;;;1.10;0.50;;;;;;;11.18;73.00;95661.03;5035298;28;20049;-77
2023/04/24 01:56:41;;;;;;;0.60;0.60;;;;;;;11.19;73.28;95665.22;5036130;28;20046;-76
2023/04/24 01:59:11;;;;;;;0.98;0.60;;;;;;;11.20;73.16;95669.44;5036226;28;20049;-78
2023/04/24 02:01:39;;;;;;;2.92;0.90;;;;;;;11.18;73.25;95661.81;5036293;28;20112;-80
2023/04/24 02:04:08;;;;;;;0.47;0.47;;;;;;;11.17;73.17;95659.41;5036072;28;20053;-77
2023/04/24 02:06:36;;;;;;;1.65;0.52;;;;;;;11.12;73.44;95660.81;5036546;28;20049;-78
2023/04/24 02:09:04;;;;;;;1.10;0.40;;;;;;;11.08;73.72;95657.03;5036409;28;20071;-78
2023/04/24 02:11:31;;;;;;;4.35;1.10;;;;;;;11.06;74.08;95646.00;5036385;28;20056;-79
2023/04/24 02:13:59;;;;;;;1.55;0.75;;;;;;;11.04;73.83;95653.25;5036454;28;20134;-77
2023/04/24 02:16:30;;;;;;;3.25;0.70;;;;;;;11.02;74.00;95657.06;5037516;28;20563;-79
2023/04/24 02:18:57;;;;;;;0.70;0.50;;;;;;;10.99;74.04;95650.44;5037000;28;20053;-80
2023/04/24 02:21:25;;;;;;;2.20;0.50;;;;;;;10.97;74.06;95652.47;5036348;28;20140;-78
2023/04/24 02:23:52;;;;;;;3.50;1.00;;;;;;;10.93;73.88;95649.47;5035977;28;20141;-77
2023/04/24 02:26:20;;;;;;;2.35;0.77;;;;;;;10.89;73.96;95643.06;5036697;28;20505;-76
2023/04/24 02:28:48;;;;;;;1.17;0.60;;;;;;;10.85;74.06;95644.50;5036187;28;20049;-79
2023/04/24 02:31:16;;;;;;;2.50;0.60;;;;;;;10.84;74.12;95644.69;5036104;28;20405;-78
2023/04/24 02:33:45;;;;;;;0.45;0.45;;;;;;;10.89;77.59;95655.31;5036711;28;20053;-79
2023/04/24 02:36:13;;;;;;;0.82;0.70;;;;;;;10.93;75.65;95651.25;5037225;28;20041;-77
2023/04/24 02:38:40;;;;;;;1.40;0.95;;;;;;;10.93;74.50;95648.66;5037884;28;20080;-77
2023/04/24 02:41:08;;;;;;;1.60;0.85;;;;;;;10.95;76.12;95651.88;5036577;28;20060;-78
2023/04/24 02:43:35;;;;;;;5.00;1.30;;;;;;;11.00;77.81;95659.06;5036537;28;20049;-78
2023/04/24 02:46:03;;;;;;;1.98;0.90;;;;;;;11.01;75.83;95658.06;5037008;28;20045;-78
2023/04/24 02:48:31;;;;;;;1.92;0.60;;;;;;;10.95;74.57;95651.88;5037269;28;20050;-77
2023/04/24 02:51:00;;;;;;;1.95;0.70;;;;;;;10.90;74.12;95655.09;5036856;28;20096;-79
2023/04/24 02:53:29;;;;;;;0.85;0.57;;;;;;;10.87;74.23;95654.72;5036617;28;20073;-77
2023/04/24 02:55:57;;;;;;;3.70;0.77;;;;;;;10.85;73.97;95651.53;5036364;28;20089;-77
2023/04/24 02:58:25;;;;;;;1.33;0.85;;;;;;;10.80;73.65;95644.31;5036248;28;20054;-76
2023/04/24 03:00:55;;;;;;;0.93;0.55;;;;;;;10.74;73.64;95649.56;5036411;28;20049;-77
2023/04/24 03:03:23;;;;;;;0.75;0.50;;;;;;;10.66;73.87;95651.38;5036325;28;20050;-79
2023/04/24 03:05:51;;;;;;;2.13;0.70;;;;;;;10.61;73.86;95651.19;5036365;28;20402;-77
2023/04/24 03:08:20;;;;;;;0.77;0.70;;;;;;;10.59;73.95;95652.41;5035967;28;20454;-76
2023/04/24 03:10:47;;;;;;;1.27;0.60;;;;;;;10.55;73.88;95646.78;5036072;28;20042;-76
2023/04/24 03:13:16;;;;;;;2.17;0.90;;;;;;;10.54;74.10;95649.59;5035622;28;20056;-77
2023/04/24 03:15:43;;;;;;;0.88;0.63;;;;;;;10.53;74.46;95648.78;5036530;28;20054;-77
2023/04/24 03:18:11;;;;;;;1.00;0.73;;;;;;;10.55;74.43;95643.38;5036316;28;20111;-77
2023/04/24 03:20:39;;;;;;;3.25;0.80;;;;;;;10.55;74.38;95638.97;5035501;28;20543;-76
2023/04/24 03:23:06;;;;;;;0.70;0.70;;;;;;;10.53;74.28;95643.56;5035679;28;20054;-80
2023/04/24 03:25:35;;;;;;;1.13;0.65;;;;;;;10.54;77.33;95645.19;5035805;28;20056;-77
2023/04/24 03:28:03;;;;;;;1.45;0.95;;;;;;;10.59;75.97;95642.75;5035269;28;20569;-77
2023/04/24 03:30:30;;;;;;;0.60;0.40;;;;;;;10.64;77.43;95645.53;5035522;28;20053;-78
2023/04/24 03:32:58;;;;;;;1.10;0.80;;;;;;;10.71;76.12;95646.34;5035192;28;20056;-78
2023/04/24 03:35:25;;;;;;;2.05;1.05;;;;;;;10.78;76.40;95648.94;5035653;28;20123;-76
2023/04/24 03:37:53;;;;;;;1.35;0.85;;;;;;;10.82;75.50;95655.34;5040064;28;20049;-77
2023/04/24 03:40:20;;;;;;;2.38;0.60;;;;;;;10.87;74.95;95652.13;5041240;28;20049;-79
2023/04/24 03:42:49;;;;;;;0.50;0.50;;;;;;;10.90;75.30;95654.31;5041117;28;20049;-78
2023/04/24 03:45:17;;;;;;;2.35;0.90;;;;;;;10.92;73.91;95657.50;5041248;28;20075;-78
2023/04/24 03:47:44;;;;;;;4.13;2.20;;;;;;;10.93;73.52;95654.69;5040695;28;20056;-78
2023/04/24 03:50:12;;;;;;;4.40;1.95;;;;;;;10.97;73.63;95662.91;5039412;28;20501;-79
2023/04/24 03:52:39;;;;;;;3.88;1.77;;;;;;;10.99;73.16;95663.50;5038947;28;20051;-78
2023/04/24 03:55:08;;;;;;;2.45;1.95;;;;;;;11.04;76.63;95663.69;5039424;28;20050;-81
2023/04/24 03:57:35;;;;;;;2.42;1.63;;;;;;;11.09;76.37;95658.63;5039294;28;20045;-79
2023/04/24 04:00:06;;;;;;;3.30;1.90;;;;;;;11.09;73.75;95663.06;5038917;28;20428;-82
2023/04/24 04:02:33;;;;;;;3.20;1.48;;;;;;;11.14;77.09;95666.63;5038537;28;20059;-77
2023/04/24 04:05:01;;;;;;;4.70;1.63;;;;;;;11.22;77.60;95654.38;5038680;28;20053;-82
2023/04/24 04:07:30;;;;;;;5.40;2.35;;;;;;;11.29;78.00;95657.75;5039269;28;20084;-79
2023/04/24 04:09:58;;;;;;;5.07;3.50;;;;;;;11.36;76.46;95673.38;5038445;28;20046;-79
2023/04/24 04:12:25;;;;;;;5.53;2.83;;;;;;;11.37;75.60;95665.34;5038562;28;20513;-84
2023/04/24 04:14:53;;;;;;;3.38;2.20;;;;;;;11.42;75.73;95660.28;5037661;28;20053;-78
2023/04/24 04:17:21;;;;;;;4.13;3.33;;;;;;;11.49;78.29;95668.88;5037924;28;20528;-80
2023/04/24 04:19:49;;;;;;;4.85;2.50;;;;;;;11.54;78.55;95669.06;5038040;28;20511;-81
2023/04/24 04:22:17;;;;;;;2.15;1.90;;;;;;;11.54;75.77;95669.06;5037541;28;20491;-80
2023/04/24 04:24:46;;;;;;;5.03;1.55;;;;;;;11.49;75.12;95666.25;5037449;28;20064;-79
2023/04/24 04:27:13;;;;;;;3.42;1.33;;;;;;;11.46;75.71;95669.31;5037944;28;20053;-81
2023/04/24 04:29:41;;;;;;;2.38;1.30;;;;;;;11.47;74.71;95668.28;5037811;28;20136;-78
2023/04/24 04:32:09;;;;;;;2.65;1.20;;;;;;;11.52;75.18;95670.25;5037947;28;20068;-82
2023/04/24 04:34:39;;;;;;;1.80;1.27;;;;;;;11.53;74.87;95672.66;5037891;28;20056;-80
2023/04/24 04:37:07;;;;;;;1.63;1.10;;;;;;;11.55;76.81;95670.66;5036392;28;20136;-78
2023/04/24 04:39:34;;;;;;;2.75;1.38;;;;;;;11.58;76.63;95676.47;5017421;28;20060;-79
2023/04/24 04:42:02;;;;;;;2.80;1.42;;;;;;;11.64;78.75;95675.63;5017374;28;20144;-78
2023/04/24 04:44:30;;;;;;;1.92;1.30;;;;;;;11.73;79.87;95674.34;5016683;28;20548;-84
2023/04/24 04:46:58;;;;;;;1.13;1.00;;;;;;;11.78;80.66;95677.13;5023880;28;20057;-83
2023/04/24 04:49:28;;;;;;;1.13;0.90;;;;;;;11.82;80.68;95670.47;5035876;28;20429;-80
2023/04/24 04:51:57;;;;;;;5.43;1.55;;;;;;;11.79;77.97;95675.34;5029648;28;20046;-82
2023/04/24 04:54:24;;;;;;;3.78;0.57;;;;;;;11.77;75.97;95679.97;5032806;28;20127;-79
2023/04/24 04:56:52;;;;;;;2.70;0.95;;;;;;;11.73;74.95;95675.16;5046678;28;20049;-78
2023/04/24 04:59:20;;;;;;;1.17;0.60;;;;;;;11.71;74.61;95676.38;5020435;28;20053;-78
2023/04/24 05:01:47;;;;;;;1.38;0.70;;;;;;;11.75;76.28;95695.84;5037242;28;20064;-78
2023/04/24 05:04:15;;;;;;;0.95;0.80;;;;;;;11.80;77.86;95690.78;5033067;28;20057;-78
2023/04/24 05:06:43;;;;;;;1.17;0.80;;;;;;;11.81;75.26;95684.56;5037301;28;20052;-80
2023/04/24 05:09:12;;;;;;;1.08;0.57;;;;;;;11.78;74.89;95682.34;5036321;28;20053;-78
2023/04/24 05:11:39;;;;;;;2.33;1.05;;;;;;;11.76;76.52;95684.38;5036542;28;20420;-77
2023/04/24 05:14:07;;;;;;;2.33;0.52;;;;;;;11.73;75.06;95682.19;5028383;28;20124;-77
2023/04/24 05:16:34;;;;;;;1.25;0.70;;;;;;;11.75;76.44;95688.81;5035066;28;20080;-76
2023/04/24 05:19:02;;;;;;;1.25;0.50;;;;;;;11.78;74.97;95695.41;5035205;28;20053;-81
2023/04/24 05:21:30;;;;;;;3.63;0.80;;;;;;;11.74;73.63;95705.50;5034526;28;20045;-79
2023/04/24 05:23:58;;;;;;;1.13;0.60;;;;;;;11.77;75.37;95712.13;5029230;28;20054;-79
2023/04/24 05:26:27;;;;;;;0.80;0.40;;;;;;;11.82;75.32;95725.34;5021971;28;20056;-79
2023/04/24 05:28:54;;;;;;;1.67;0.60;;;;;;;11.85;75.40;95719.72;5037650;28;20049;-78
2023/04/24 05:31:22;;;;;;;4.63;0.63;;;;;;;11.88;76.30;95729.75;5030673;28;20041;-79
2023/04/24 05:33:49;;;;;;;1.48;0.60;;;;;;;11.89;76.02;95743.63;5032504;28;20520;-80
2023/04/24 05:36:17;;;;;;;3.25;0.88;;;;;;;11.89;75.88;95741.78;5026031;28;20064;-81
2023/04/24 05:38:45;;;;;;;1.20;0.90;;;;;;;11.92;76.00;95741.38;5040217;23;20042;-80
2023/04/24 05:41:12;;;;;;;1.33;1.00;;;;;;;11.96;77.31;95778.38;5031815;28;20048;-80
2023/04/24 05:43:41;;;;;;;1.83;0.52;;;;;;;11.92;74.39;95782.41;5031351;28;20077;-80
2023/04/24 05:46:09;;;;;;;0.35;0.35;;;;;;;11.83;73.32;95801.91;5032277;28;20053;-80
2023/04/24 05:48:36;;;;;;;0.45;0.45;;;;;;;11.66;71.92;95796.38;5032264;28;20053;-79
2023/04/24 05:51:04;;;;;;;2.97;0.63;;;;;;;11.53;72.85;95805.06;5031799;28;20045;-79
2023/04/24 05:53:32;;;;;;;1.42;0.68;;;;;;;11.47;73.50;95806.69;5032296;28;20050;-79
2023/04/24 05:55:59;;;;;;;0.40;0.40;;;;;;;11.42;73.52;95803.91;5033010;28;20049;-80
2023/04/24 05:58:27;;;;;;;2.50;1.00;;;;;;;11.36;73.05;95820.38;5033182;28;20551;-79
2023/04/24 06:00:57;;;;;;;3.00;1.08;;;;;;;11.36;75.62;95841.28;5033333;28;20539;-80
2023/04/24 06:03:25;;;;;;;1.63;1.10;;;;;;;11.33;74.05;95826.03;5032997;28;20049;-80
2023/04/24 06:05:52;;;;;;;1.65;0.82;;;;;;;11.32;74.38;95824.41;5033255;28;20056;-79
2023/04/24 06:08:20;;;;;;;4.50;1.30;;;;;;;11.34;75.06;95804.13;5033139;28;20056;-80
2023/04/24 06:10:47;;;;;;;1.10;1.00;;;;;;;11.38;75.03;95810.53;5033103;28;20128;-79
2023/04/24 06:13:15;;;;;;;1.27;1.08;;;;;;;11.44;75.91;95811.53;5032827;28;20041;-79
2023/04/24 06:15:44;;;;;;;2.28;1.17;;;;;;;11.47;76.26;95806.69;5032805;28;20052;-79
2023/04/24 06:18:13;;;;;;;2.13;1.52;;;;;;;11.50;73.54;95813.31;5032763;28;20049;-80
2023/04/24 06:20:40;;;;;;;6.00;1.52;;;;;;;11.52;75.60;95809.50;5032982;28;20394;-80
2023/04/24 06:23:08;;;;;;;1.60;0.95;;;;;;;11.58;75.07;95817.50;5032391;28;20397;-79
2023/04/24 06:25:36;;;;;;;1.63;1.23;;;;;;;11.66;75.32;95822.50;5032564;28;20111;-80
2023/04/24 06:28:03;;;;;;;0.85;0.85;;;;;;;11.69;74.55;95829.91;5032544;28;20055;-80
2023/04/24 06:30:31;;;;;;;1.20;1.10;;;;;;;11.73;74.90;95831.09;5032245;28;20057;-80
2023/04/24 06:32:58;;;;;;;1.80;1.00;;;;;;;11.77;73.84;95828.91;5032497;28;20088;-80
2023/04/24 06:35:46;;;;;;;1.45;1.30;;;;;;;11.79;71.98;95829.50;5033171;28;20061;-79
2023/04/24 06:38:15;;;;;;;2.17;1.33;;;;;;;11.78;73.07;95827.88;5032269;28;20497;-79
2023/04/24 06:40:43;;;;;;;1.35;1.20;;;;;;;11.80;73.83;95837.09;5032726;28;20517;-80
2023/04/24 06:43:10;;;;;;;1.98;1.10;;;;;;;11.79;72.51;95838.13;5031976;28;20148;-80
2023/04/24 06:45:39;;;;;;;2.38;0.80;;;;;;;11.79;72.74;95839.94;5032406;28;20049;-80
2023/04/24 06:48:07;;;;;;;0.90;0.90;;;;;;;11.78;71.01;95836.50;5032414;28;20053;-79
2023/04/24 06:50:35;;;;;;;2.47;1.23;;;;;;;11.74;70.50;95841.34;5032101;28;20057;-80
2023/04/24 06:53:04;;;;;;;3.20;1.50;;;;;;;11.75;72.86;95840.34;5032263;28;20049;-79
2023/04/24 06:55:31;;;;;;;1.15;1.10;;;;;;;11.81;72.19;95843.94;5032087;28;20509;-80
2023/04/24 06:57:59;;;;;;;2.47;1.27;;;;;;;11.87;72.24;95848.34;5032327;28;20061;-80
2023/04/24 07:00:27;;;;;;;1.35;1.17;;;;;;;11.95;70.60;95835.03;5032283;28;20485;-79
2023/04/24 07:02:54;;;;;;;1.30;1.20;;;;;;;12.06;71.25;95845.84;5032186;28;20477;-79
2023/04/24 07:05:23;;;;;;;1.10;0.95;;;;;;;12.14;70.58;95837.78;5032359;28;20135;-79
2023/04/24 07:07:51;;;;;;;2.17;1.58;;;;;;;12.21;69.26;95840.34;5032295;28;20052;-80
2023/04/24 07:10:20;;;;;;;1.70;1.60;;;;;;;12.28;69.36;95835.88;5032659;28;20045;-79
2023/04/24 07:12:48;;;;;;;1.77;1.60;;;;;;;12.34;69.75;95835.03;5036146;28;20489;-80
2023/04/24 07:15:16;;;;;;;5.50;1.70;;;;;;;12.34;69.21;95838.44;5036518;28;20057;-80
2023/04/24 07:17:44;;;;;;;2.33;1.42;;;;;;;12.39;69.35;95839.63;5041653;28;20099;-80
2023/04/24 07:20:14;;;;;;;2.05;1.17;;;;;;;12.41;68.99;95837.59;5047376;28;20064;-80
2023/04/24 07:22:41;;;;;;;3.92;2.28;;;;;;;12.39;67.89;95837.03;5043481;28;20053;-79
2023/04/24 07:25:09;;;;;;;2.50;1.73;;;;;;;12.34;67.87;95833.22;5036557;28;20493;-80
2023/04/24 07:27:38;;;;;;;1.80;1.70;;;;;;;12.35;71.29;95844.47;5036158;28;20141;-80
2023/04/24 07:30:07;;;;;;;1.90;1.63;;;;;;;12.36;68.11;95841.66;5035860;28;20132;-79
2023/04/24 07:32:35;;;;;;;1.98;1.70;;;;;;;12.46;68.34;95845.63;5035517;28;20257;-80
2023/04/24 07:35:03;;;;;;;1.73;1.35;;;;;;;12.62;68.70;95839.88;5035727;28;20053;-81
2023/04/24 07:37:31;;;;;;;1.63;1.30;;;;;;;12.84;69.41;95836.91;5035857;28;20061;-80
2023/04/24 07:39:58;;;;;;;2.22;1.88;;;;;;;12.98;70.03;95835.75;5035556;28;20428;-80
2023/04/24 07:42:26;;;;;;;1.90;1.60;;;;;;;13.17;69.16;95839.19;5035590;28;20056;-80
2023/04/24 07:44:55;;;;;;;1.98;1.60;;;;;;;13.41;67.39;95839.41;5035348;28;20056;-80
2023/04/24 07:47:23;;;;;;;1.23;1.10;;;;;;;13.62;66.22;95848.63;5035520;28;20045;-80
2023/04/24 07:49:50;;;;;;;1.23;1.13;;;;;;;13.82;66.96;95843.97;5035537;28;20049;-80
2023/04/24 07:52:18;;;;;;;1.52;1.33;;;;;;;14.06;65.77;95851.91;5035309;28;20436;-80
2023/04/24 07:54:45;;;;;;;3.22;1.15;;;;;;;14.19;65.50;95855.19;5035378;28;20053;-80
2023/04/24 07:57:13;;;;;;;1.30;1.25;;;;;;;14.35;64.25;95853.75;5035185;28;20053;-80
2023/04/24 07:59:41;;;;;;;1.80;1.70;;;;;;;14.29;62.63;95852.03;5035298;28;20056;-80
2023/04/24 08:02:11;;;;;;;2.22;1.63;;;;;;;14.10;64.01;95856.53;5034958;28;20045;-80
2023/04/24 08:04:39;;;;;;;4.10;1.83;;;;;;;13.99;64.45;95862.50;5035498;28;20061;-80
2023/04/24 08:07:07;;;;;;;2.05;1.33;;;;;;;13.90;63.52;95862.00;5035471;28;20049;-80
2023/04/24 08:09:35;;;;;;;1.38;1.27;;;;;;;13.89;65.03;95860.41;5035423;28;20049;-79
2023/04/24 08:12:03;;;;;;;1.15;1.10;;;;;;;13.96;65.93;95863.75;5036667;28;20052;-80
2023/04/24 08:14:31;;;;;;;1.77;1.30;;;;;;;14.15;65.94;95869.78;5036106;28;20064;-80
2023/04/24 08:16:59;;;;;;;2.13;1.30;;;;;;;14.33;62.47;95860.25;5037548;28;20128;-80
2023/04/24 08:19:28;;;;;;;1.63;1.30;;;;;;;14.53;62.82;95865.22;5040180;28;20611;-80
2023/04/24 08:21:56;;;;;;;1.80;1.40;;;;;;;14.76;61.01;95867.94;5041321;28;20060;-80
2023/04/24 08:24:24;;;;;;;1.30;1.20;;;;;;;15.03;60.32;95854.38;5043529;28;20045;-80
2023/04/24 08:26:53;;;;;;;1.48;1.35;;;;;;;15.16;60.36;95864.66;5043359;28;20053;-80
2023/04/24 08:29:21;;;;;;;1.58;1.48;;;;;;;15.12;56.21;95868.75;5041593;28;20508;-80
2023/04/24 08:31:49;;;;;;;1.35;1.05;;;;;;;15.14;59.46;95850.16;5042979;28;20136;-80
2023/04/24 08:34:17;;;;;;;1.48;1.25;;;;;;;15.19;56.99;95860.75;5040198;28;20140;-80
2023/04/24 08:36:46;;;;;;;1.48;1.38;;;;;;;15.08;57.74;95872.84;5036213;28;20053;-80
2023/04/24 08:39:14;;;;;;;1.48;1.33;;;;;;;14.90;58.04;95881.63;5036157;28;20405;-80
2023/04/24 08:41:42;;;;;;;1.65;1.35;;;;;;;14.65;59.29;95892.34;5035995;28;20048;-80
2023/04/24 08:44:10;;;;;;;1.67;1.10;;;;;;;14.45;58.61;95899.63;5039662;28;20046;-80
2023/04/24 08:46:38;;;;;;;1.50;1.40;;;;;;;14.26;61.04;95915.44;5039968;28;20050;-80
2023/04/24 08:49:06;;;;;;;1.52;1.10;;;;;;;14.10;61.04;95918.66;5036082;28;20049;-80
2023/04/24 08:51:34;;;;;;;1.48;1.25;;;;;;;13.94;61.23;95901.69;5035065;28;20085;-80
2023/04/24 08:54:04;;;;;;;1.42;1.33;;;;;;;13.83;61.78;95911.09;5036098;28;20549;-80
2023/04/24 08:56:34;;;;;;;2.25;1.00;;;;;;;13.81;60.86;95907.88;5034921;28;20050;-80
2023/04/24 08:59:02;;;;;;;11.15;1.40;;;;;;;13.95;61.71;95908.53;5038409;28;20064;-79
2023/04/24 09:01:32;;;;;;;2.63;1.20;;;;;;;14.25;61.83;95905.94;5039156;28;20059;-80
2023/04/24 09:04:02;;;;;;;0.80;0.80;;;;;;;14.59;60.25;95912.38;5034435;28;20049;-80
2023/04/24 09:06:31;;;;;;;1.08;0.98;;;;;;;14.94;59.72;95910.88;5034321;28;20049;-80
2023/04/24 09:09:03;;;;;;;0.98;0.85;;;;;;;15.14;58.70;95913.97;5034336;28;20071;-80
2023/04/24 09:11:32;;;;;;;1.75;0.82;;;;;;;15.36;58.53;95905.53;5034394;28;20409;-80
2023/04/24 09:14:00;;;;;;;1.20;0.90;;;;;;;15.38;57.03;95916.63;5034374;28;20056;-80
2023/04/24 09:16:29;;;;;;;1.58;0.98;;;;;;;15.23;57.99;95911.81;5034523;28;20053;-80
2023/04/24 09:18:57;;;;;;;1.42;1.00;;;;;;;15.06;56.64;95903.81;5034421;28;20046;-80
2023/04/24 09:21:24;;;;;;;1.02;0.70;;;;;;;14.96;58.57;95900.94;5034120;28;20051;-80
2023/04/24 09:23:59;;;;;;;5.68;2.55;;;;;;;14.76;54.17;95906.50;5034044;28;20056;-80
2023/04/24 09:26:31;;;;;;;4.93;2.72;;;;;;;14.56;56.24;95914.66;5034515;28;20045;-80
2023/04/24 09:28:59;;;;;;;3.63;2.30;;;;;;;14.42;58.39;95922.69;5033854;28;20421;-79
2023/04/24 09:31:29;;;;;;;4.72;2.70;;;;;;;14.25;56.78;95918.28;5033880;28;20086;-80
2023/04/24 09:33:58;;;;;;;2.63;1.60;;;;;;;14.02;55.84;95920.56;5033688;28;20050;-80
2023/04/24 09:36:32;;;;;;;2.97;2.10;;;;;;;13.79;56.32;95930.91;5034127;28;20096;-80
2023/04/24 09:39:01;;;;;;;2.70;1.50;;;;;;;13.66;56.22;95938.91;5034323;28;20354;-80
2023/04/24 09:41:30;;;;;;;1.70;1.10;;;;;;;13.56;57.87;95929.72;5034138;28;20113;-79
2023/04/24 09:43:58;;;;;;;2.55;1.33;;;;;;;13.54;54.29;95931.75;5034458;28;20060;-80
2023/04/24 09:46:32;;;;;;;1.55;1.30;;;;;;;13.69;57.05;95933.25;5034076;28;20421;-80
2023/04/24 09:49:09;;;;;;;1.63;1.02;;;;;;;13.91;54.23;95936.22;5033961;28;20049;-80
2023/04/24 09:51:38;;;;;;;1.48;1.20;;;;;;;14.04;55.34;95927.38;5034234;28;20484;-80
2023/04/24 09:54:15;;;;;;;0.85;0.85;;;;;;;14.13;57.38;95923.47;5033224;28;20096;-80
2023/04/24 09:56:46;;;;;;;3.25;1.50;;;;;;;14.22;53.22;95925.56;5034192;28;20057;-80
2023/04/24 09:59:14;;;;;;;1.88;1.00;;;;;;;14.38;51.88;95923.34;5034026;28;20057;-80
2023/04/24 10:01:44;;;;;;;2.60;0.90;;;;;;;14.54;51.83;95914.03;5033866;28;20207;-80
2023/04/24 10:04:20;;;;;;;2.60;1.00;;;;;;;14.61;50.22;95922.69;5034147;28;20050;-80
2023/04/24 10:06:49;;;;;;;1.45;1.00;;;;;;;14.66;50.25;95920.16;5034024;28;20085;-80
2023/04/24 10:09:18;;;;;;;4.60;2.00;;;;;;;14.78;49.74;95921.00;5033739;28;20049;-80
2023/04/24 10:11:49;;;;;;;1.55;1.20;;;;;;;15.00;51.38;95917.88;5034089;28;20477;-80
2023/04/24 10:14:19;;;;;;;4.05;2.70;;;;;;;14.99;49.43;95932.78;5034223;28;20564;-80
2023/04/24 10:16:47;;;;;;;4.03;1.60;;;;;;;14.78;51.63;95936.75;5041041;28;20105;-80
2023/04/24 10:19:16;;;;;;;4.90;2.80;;;;;;;14.54;51.09;95942.91;5054930;28;20060;-80
2023/04/24 10:21:46;;;;;;;4.95;3.03;;;;;;;14.37;54.48;95945.38;5051947;28;20108;-80
2023/04/24 10:24:15;;;;;;;31.40;13.10;;;;;;;14.33;55.10;95945.00;5048351;28;20504;-80
2023/04/24 10:26:45;;;;;;;11.02;4.65;;;;;;;14.27;53.91;95960.81;5040758;28;20060;-80
2023/04/24 10:29:15;;;;;;;4.82;2.53;;;;;;;14.19;52.54;95961.91;5036853;28;20091;-80
2023/04/24 10:31:45;;;;;;;3.30;2.20;;;;;;;14.45;52.53;95958.16;5048135;28;20084;-80
2023/04/24 10:34:15;;;;;;;11.25;4.47;;;;;;;14.71;52.19;95972.00;5049146;28;20064;-81
2023/04/24 10:36:48;;;;;;;7.55;3.33;;;;;;;14.68;50.75;95978.50;5038834;28;20050;-80
2023/04/24 10:39:17;;;;;;;7.40;3.65;;;;;;;14.57;50.73;95974.00;5038799;28;20053;-81
2023/04/24 10:41:46;;;;;;;6.70;2.78;;;;;;;14.39;52.85;95983.47;5035885;28;20481;-81
2023/04/24 10:44:16;;;;;;;2.83;1.80;;;;;;;14.22;53.36;95979.84;5033627;28;20076;-81
2023/04/24 10:46:47;;;;;;;2.90;2.20;;;;;;;14.16;51.17;95989.38;5032971;28;20049;-81
2023/04/24 10:49:15;;;;;;;16.52;6.15;;;;;;;14.22;52.98;95990.34;5036964;28;20049;-81
2023/04/24 10:51:48;;;;;;;35.83;14.02;;;;;;;14.25;52.17;95997.75;5033276;28;20532;-81
2023/04/24 10:54:26;;;;;;;19.95;6.82;;;;;;;14.29;52.57;95990.25;5034944;28;20076;-81
2023/04/24 10:57:14;;;;;;;6.20;3.17;;;;;;;14.43;50.59;96005.63;5034608;28;20050;-81
2023/04/24 10:59:44;;;;;;;2.15;1.60;;;;;;;14.61;52.32;95996.97;5035392;28;20049;-81
2023/04/24 11:02:15;;;;;;;2.65;1.65;;;;;;;14.78;48.33;95993.69;5036221;28;20101;-81
2023/04/24 11:04:43;;;;;;;3.65;1.63;;;;;;;14.91;51.04;95996.16;5034633;28;20056;-80
2023/04/24 11:07:11;;;;;;;3.08;1.60;;;;;;;14.98;49.67;95988.19;5035703;28;20111;-80
2023/04/24 11:09:40;;;;;;;3.40;1.85;;;;;;;14.92;49.84;95997.75;5032845;28;20053;-80
2023/04/24 11:12:10;;;;;;;27.98;11.15;;;;;;;14.88;51.13;95993.19;5032995;28;20096;-80
2023/04/24 11:15:02;;;;;;;5.38;2.30;;;;;;;14.73;50.13;96004.88;5032797;28;20053;-80
2023/04/24 11:17:31;;;;;;;3.50;1.48;;;;;;;14.47;49.52;95997.31;5032744;28;20060;-80
2023/04/24 11:20:04;;;;;;;2.15;1.40;;;;;;;14.18;49.04;95994.41;5032449;28;20061;-80
2023/04/24 11:22:54;;;;;;;3.70;1.40;;;;;;;13.95;48.87;96003.75;5032589;28;20057;-80
2023/04/24 11:25:23;;;;;;;2.83;1.70;;;;;;;13.93;50.07;96013.66;5032623;28;20050;-80
2023/04/24 11:27:51;;;;;;;6.03;2.15;;;;;;;13.95;50.70;96000.31;5032800;28;20053;-80
2023/04/24 11:30:21;;;;;;;3.13;2.22;;;;;;;14.12;52.24;96000.53;5032203;28;20516;-80
2023/04/24 11:32:51;;;;;;;3.30;2.50;;;;;;;14.37;50.97;95998.63;5032900;28;20425;-80
2023/04/24 11:35:21;;;;;;;18.02;7.45;;;;;;;14.62;49.65;96006.41;5032637;28;20050;-80
2023/04/24 11:37:51;;;;;;;2.72;1.77;;;;;;;14.76;48.02;96009.69;5033210;28;20072;-80
2023/04/24 11:40:24;;;;;;;1.35;0.93;;;;;;;14.74;46.89;96017.00;5032600;28;20049;-80